createdAt,value
2022-08-05T00:00:11.402Z,30.27
2022-08-05T00:03:03.361Z,29.17
2022-08-05T00:06:04.637Z,30.47
2022-08-05T00:08:53.789Z,27.73
2022-08-05T00:11:48.700Z,28.07
2022-08-05T00:14:43.740Z,30.93
2022-08-05T00:17:34.996Z,32.17
2022-08-05T00:20:22.098Z,30.30
2022-08-05T00:23:16.026Z,28.97
2022-08-05T00:26:03.285Z,27.27
2022-08-05T00:28:51.227Z,28.37
2022-08-05T00:31:54.290Z,25.50
2022-08-05T00:35:04.855Z,27.50
2022-08-05T00:37:54.096Z,26.53
2022-08-05T00:40:53.809Z,30.00
2022-08-05T00:43:46.516Z,27.47
2022-08-05T00:46:42.619Z,28.00
2022-08-05T00:49:32.369Z,24.83
2022-08-05T00:52:28.787Z,31.20
2022-08-05T00:55:16.406Z,28.57
2022-08-05T00:58:05.918Z,29.30
2022-08-05T01:00:58.582Z,25.40
2022-08-05T01:03:45.651Z,26.47
2022-08-05T01:06:37.248Z,26.30
2022-08-05T01:09:24.335Z,28.23
2022-08-05T01:12:20.462Z,30.07
2022-08-05T01:15:18.139Z,27.80
2022-08-05T01:18:23.783Z,30.07
2022-08-05T01:21:52.301Z,31.00
2022-08-05T01:24:50.620Z,26.13
2022-08-05T01:28:11.546Z,29.43
2022-08-05T01:31:15.569Z,36.53
2022-08-05T01:34:26.684Z,28.80
2022-08-05T01:37:24.409Z,34.10
2022-08-05T01:40:17.897Z,34.93
2022-08-05T01:43:08.198Z,39.43
2022-08-05T01:46:16.430Z,40.70
2022-08-05T01:52:26.154Z,43.30
2022-08-05T01:55:16.815Z,43.17
2022-08-05T01:58:15.705Z,47.23
2022-08-05T02:01:07.448Z,46.37
2022-08-05T02:03:57.710Z,39.07
2022-08-05T02:06:45.208Z,46.43
2022-08-05T02:09:32.839Z,46.93
2022-08-05T02:12:33.183Z,46.97
2022-08-05T02:15:34.087Z,48.13
2022-08-05T02:18:31.053Z,40.33
2022-08-05T02:21:25.233Z,35.27
2022-08-05T02:24:19.466Z,40.37
2022-08-05T02:27:12.801Z,37.13
2022-08-05T02:30:02.082Z,37.57
2022-08-05T02:32:52.663Z,41.27
2022-08-05T02:35:50.006Z,36.30
2022-08-05T02:38:53.426Z,36.57
2022-08-05T02:42:00.448Z,33.30
2022-08-05T02:44:50.126Z,34.83
2022-08-05T02:48:11.995Z,38.20
2022-08-05T02:50:50.659Z,32.47
2022-08-05T02:53:40.428Z,34.07
2022-08-05T02:56:39.748Z,36.63
2022-08-05T02:59:47.766Z,33.13
2022-08-05T03:06:55.098Z,38.40
2022-08-05T03:08:52.155Z,37.93
2022-08-05T03:11:54.979Z,38.33
2022-08-05T03:14:46.104Z,34.13
2022-08-05T03:17:41.746Z,37.77
2022-08-05T03:20:29.174Z,42.27
2022-08-05T03:23:20.573Z,39.07
2022-08-05T03:26:31.461Z,41.93
2022-08-05T03:29:18.830Z,34.90
2022-08-05T03:32:09.161Z,38.63
2022-08-05T03:34:58.607Z,31.03
2022-08-05T03:37:46.736Z,38.73
2022-08-05T03:40:33.971Z,41.20
2022-08-05T03:44:09.571Z,35.57
2022-08-05T03:46:32.778Z,40.53
2022-08-05T03:49:19.955Z,36.47
2022-08-05T03:52:48.461Z,33.73
2022-08-05T03:56:09.454Z,30.90
2022-08-05T03:58:38.300Z,34.73
2022-08-05T04:01:32.375Z,34.33
2022-08-05T04:04:21.545Z,28.90
2022-08-05T04:07:10.939Z,33.20
2022-08-05T04:09:58.577Z,27.90
2022-08-05T04:12:49.987Z,29.27
2022-08-05T04:15:37.520Z,30.73
2022-08-05T04:18:25.578Z,24.67
2022-08-05T04:21:13.090Z,29.13
2022-08-05T04:24:22.476Z,23.37
2022-08-05T04:27:10.025Z,22.23
2022-08-05T04:29:57.062Z,21.83
2022-08-05T04:32:44.041Z,19.30
2022-08-05T04:36:10.923Z,24.23
2022-08-05T04:38:39.938Z,19.13
2022-08-05T04:41:36.570Z,21.73
2022-08-05T04:44:30.143Z,19.53
2022-08-05T04:47:20.001Z,20.60
2022-08-05T04:50:11.556Z,17.50
2022-08-05T04:52:58.814Z,17.63
2022-08-05T04:56:00.210Z,16.10
2022-08-05T04:58:55.401Z,20.57
2022-08-05T05:02:06.812Z,16.93
2022-08-05T05:04:51.354Z,15.03
2022-08-05T05:07:38.621Z,12.97
2022-08-05T05:10:40.889Z,18.30
2022-08-05T05:13:43.256Z,15.73
2022-08-05T05:16:30.973Z,19.73
2022-08-05T05:19:23.605Z,14.20
2022-08-05T05:22:23.888Z,14.60
2022-08-05T05:25:16.648Z,10.23
2022-08-05T05:28:04.746Z,11.50
2022-08-05T05:30:52.386Z,10.27
2022-08-05T05:33:57.071Z,9.77
2022-08-05T05:36:47.048Z,15.63
2022-08-05T05:39:35.145Z,9.70
2022-08-05T05:42:23.276Z,8.77
2022-08-05T05:45:11.319Z,11.27
2022-08-05T05:48:10.072Z,12.87
2022-08-05T05:50:57.214Z,12.10
2022-08-05T05:53:46.109Z,10.90
2022-08-05T05:56:46.465Z,14.07
2022-08-05T05:59:40.194Z,12.47
2022-08-05T06:02:37.648Z,10.60
2022-08-05T06:05:24.986Z,13.57
2022-08-05T06:08:13.626Z,10.30
2022-08-05T06:11:01.443Z,11.87
2022-08-05T06:13:53.620Z,10.33
2022-08-05T06:16:40.969Z,13.53
2022-08-05T06:19:34.228Z,11.60
2022-08-05T06:22:34.073Z,10.73
2022-08-05T06:25:59.388Z,11.57
2022-08-05T06:28:28.633Z,12.07
2022-08-05T06:31:18.049Z,12.03
2022-08-05T06:34:09.161Z,11.43
2022-08-05T06:36:58.136Z,10.57
2022-08-05T06:39:45.820Z,12.70
2022-08-05T06:42:33.497Z,11.00
2022-08-05T06:45:44.662Z,12.10
2022-08-05T06:48:55.760Z,13.80
2022-08-05T06:51:36.417Z,15.90
2022-08-05T06:54:28.182Z,17.47
2022-08-05T06:58:02.640Z,16.13
2022-08-05T07:00:26.659Z,14.43
2022-08-05T07:03:17.132Z,12.90
2022-08-05T07:06:06.059Z,12.33
2022-08-05T07:09:04.178Z,11.43
2022-08-05T07:11:52.377Z,12.50
2022-08-05T07:14:57.814Z,14.63
2022-08-05T07:18:08.337Z,12.63
2022-08-05T07:20:52.396Z,11.63
2022-08-05T07:23:49.104Z,13.50
2022-08-05T07:26:37.226Z,13.07
2022-08-05T07:29:25.348Z,13.50
2022-08-05T07:32:35.883Z,11.77
2022-08-05T07:36:03.736Z,8.87
2022-08-05T07:38:33.803Z,13.97
2022-08-05T07:42:06.893Z,10.23
2022-08-05T07:44:31.260Z,10.80
2022-08-05T07:47:18.563Z,8.50
2022-08-05T07:50:16.468Z,11.97
2022-08-05T07:53:04.168Z,10.87
2022-08-05T07:56:06.368Z,8.90
2022-08-05T07:58:59.220Z,9.30
2022-08-05T08:01:52.041Z,9.90
2022-08-05T08:04:47.346Z,8.27
2022-08-05T08:07:39.720Z,10.70
2022-08-05T08:10:41.996Z,9.30
2022-08-05T08:13:43.016Z,10.17
2022-08-05T08:16:50.721Z,8.30
2022-08-05T08:20:43.615Z,13.27
2022-08-05T08:23:05.298Z,8.50
2022-08-05T08:25:59.897Z,11.63
2022-08-05T08:29:02.249Z,10.20
2022-08-05T08:31:56.079Z,11.87
2022-08-05T08:34:43.350Z,11.57
2022-08-05T08:37:30.477Z,12.53
2022-08-05T08:40:24.241Z,11.53
2022-08-05T08:45:16.212Z,13.90
2022-08-05T08:46:24.162Z,12.20
2022-08-05T08:50:14.572Z,11.37
2022-08-05T08:52:32.285Z,12.27
2022-08-05T08:56:01.847Z,13.37
2022-08-05T08:58:43.910Z,13.93
2022-08-05T09:01:34.658Z,14.67
2022-08-05T09:04:30.437Z,13.53
2022-08-05T09:07:19.650Z,17.10
2022-08-05T09:10:15.768Z,13.87
2022-08-05T09:13:05.928Z,14.67
2022-08-05T09:15:55.291Z,14.33
2022-08-05T09:18:44.723Z,16.23
2022-08-05T09:22:31.218Z,13.33
2022-08-05T09:24:38.974Z,11.47
2022-08-05T09:28:04.565Z,11.03
2022-08-05T09:31:00.997Z,9.37
2022-08-05T09:34:11.840Z,9.77
2022-08-05T09:37:00.225Z,9.50
2022-08-05T09:39:55.873Z,11.50
2022-08-05T09:42:44.061Z,13.27
2022-08-05T09:46:07.169Z,11.93
2022-08-05T09:49:06.923Z,14.77
2022-08-05T09:51:53.021Z,13.73
2022-08-05T09:54:52.781Z,14.60
2022-08-05T09:57:43.231Z,14.23
2022-08-05T10:00:30.846Z,17.93
2022-08-05T10:03:18.771Z,18.87
2022-08-05T10:06:15.800Z,21.77
2022-08-05T10:09:27.837Z,20.57
2022-08-05T10:12:30.757Z,20.37
2022-08-05T10:15:27.206Z,22.50
2022-08-05T10:18:16.774Z,19.47
2022-08-05T10:21:11.820Z,21.87
2022-08-05T10:24:07.568Z,22.27
2022-08-05T10:27:00.529Z,19.50
2022-08-05T10:30:41.897Z,19.43
2022-08-05T10:33:02.898Z,12.43
2022-08-05T10:35:59.279Z,12.43
2022-08-05T10:38:50.042Z,12.37
2022-08-05T10:45:21.206Z,12.47
2022-08-05T10:52:02.876Z,10.80
2022-08-05T10:55:10.708Z,9.50
2022-08-05T10:58:11.695Z,7.47
2022-08-05T11:01:07.685Z,5.80
2022-08-05T11:04:08.211Z,5.90
2022-08-05T11:07:01.999Z,7.57
2022-08-05T11:10:09.571Z,5.47
2022-08-05T11:13:10.335Z,6.67
2022-08-05T11:16:56.198Z,6.70
2022-08-05T11:28:38.221Z,8.70
2022-08-05T11:34:54.401Z,8.53
2022-08-05T11:38:29.585Z,6.73
2022-08-05T11:44:54.166Z,10.57
2022-08-05T11:47:54.561Z,5.47
2022-08-05T11:50:42.870Z,4.23
2022-08-05T11:56:52.069Z,6.50
2022-08-05T11:59:49.975Z,5.27
2022-08-05T12:02:39.992Z,4.73
2022-08-05T12:05:36.297Z,5.93
2022-08-05T12:08:27.732Z,5.63
2022-08-05T12:11:40.307Z,5.77
2022-08-05T12:14:47.433Z,7.20
2022-08-05T12:18:04.164Z,5.63
2022-08-05T12:20:44.048Z,5.93
2022-08-05T12:23:32.739Z,5.70
2022-08-05T12:26:20.084Z,5.17
2022-08-05T12:29:27.730Z,5.70
2022-08-05T12:32:14.727Z,4.67
2022-08-05T12:35:05.641Z,5.10
2022-08-05T12:37:55.655Z,4.73
2022-08-05T12:40:43.518Z,4.77
2022-08-05T12:43:32.154Z,4.23
2022-08-05T12:46:29.394Z,5.67
2022-08-05T12:49:19.021Z,4.43
2022-08-05T12:52:23.899Z,4.13
2022-08-05T12:55:23.503Z,4.57
2022-08-05T12:58:48.496Z,4.43
2022-08-05T13:02:03.463Z,6.93
2022-08-05T13:04:54.440Z,4.87
2022-08-05T13:08:01.104Z,8.73
2022-08-05T13:10:53.143Z,6.20
2022-08-05T13:14:05.926Z,7.03
2022-08-05T13:17:01.519Z,5.30
2022-08-05T13:20:33.128Z,5.03
2022-08-05T13:23:24.169Z,4.63
2022-08-05T13:26:29.846Z,4.97
2022-08-05T13:29:18.828Z,3.20
2022-08-05T13:32:10.663Z,3.60
2022-08-05T13:34:58.565Z,3.73
2022-08-05T13:37:57.810Z,5.67
2022-08-05T13:41:01.037Z,4.13
2022-08-05T13:43:54.950Z,3.50
2022-08-05T13:47:01.752Z,5.70
2022-08-05T13:49:58.881Z,3.73
2022-08-05T13:52:49.900Z,4.73
2022-08-05T13:55:40.950Z,4.33
2022-08-05T13:58:30.552Z,5.47
2022-08-05T14:01:18.677Z,5.37
2022-08-05T14:04:26.420Z,6.17
2022-08-05T14:07:26.098Z,6.63
2022-08-05T14:10:30.815Z,4.60
2022-08-05T14:13:18.682Z,4.73
2022-08-05T14:16:11.516Z,5.23
2022-08-05T14:19:04.432Z,4.73
2022-08-05T14:22:09.477Z,4.13
2022-08-05T14:24:59.163Z,5.67
2022-08-05T14:27:48.506Z,5.13
2022-08-05T14:30:35.651Z,7.20
2022-08-05T14:33:23.831Z,4.30
2022-08-05T14:36:11.442Z,4.70
2022-08-05T14:38:58.932Z,4.47
2022-08-05T14:42:15.657Z,7.72
2022-08-05T14:44:57.309Z,4.15
2022-08-05T14:48:04.956Z,5.00
2022-08-05T14:50:53.241Z,3.13
2022-08-05T14:53:44.574Z,4.70
2022-08-05T14:56:31.842Z,4.27
2022-08-05T14:59:21.230Z,4.23
2022-08-05T15:02:15.777Z,4.40
2022-08-05T15:05:08.744Z,5.30
2022-08-05T15:08:06.473Z,3.55
2022-08-05T15:11:00.366Z,5.75
2022-08-05T15:13:50.344Z,7.07
2022-08-05T15:16:37.577Z,3.63
2022-08-05T15:19:27.625Z,4.05
2022-08-05T15:22:16.196Z,4.15
2022-08-05T15:25:11.896Z,2.75
2022-08-05T15:28:01.977Z,3.28
2022-08-05T15:30:51.538Z,4.72
2022-08-05T15:34:05.657Z,4.55
2022-08-05T15:36:47.299Z,3.55
2022-08-05T15:41:00.503Z,3.40
2022-08-05T15:42:56.780Z,3.92
2022-08-05T15:45:47.697Z,2.95
2022-08-05T15:48:52.493Z,4.78
2022-08-05T15:52:10.343Z,2.67
2022-08-05T15:54:53.054Z,5.07
2022-08-05T15:57:42.050Z,2.58
2022-08-05T16:00:50.319Z,7.43
2022-08-05T16:03:43.736Z,3.97
2022-08-05T16:06:31.218Z,2.33
2022-08-05T16:09:18.295Z,2.10
2022-08-05T16:12:09.386Z,2.70
2022-08-05T16:14:58.518Z,1.80
2022-08-05T16:17:49.715Z,2.80
2022-08-05T16:20:45.152Z,2.80
2022-08-05T16:23:53.809Z,1.67
2022-08-05T16:27:01.848Z,3.33
2022-08-05T16:29:58.667Z,4.93
2022-08-05T16:32:45.757Z,1.57
2022-08-05T16:35:34.629Z,1.97
2022-08-05T16:38:30.525Z,1.63
2022-08-05T16:42:14.116Z,2.40
2022-08-05T16:44:40.279Z,4.20
2022-08-05T16:47:36.314Z,3.03
2022-08-05T16:50:35.814Z,3.33
2022-08-05T16:53:32.257Z,2.10
2022-08-05T16:56:21.643Z,1.97
2022-08-05T16:59:10.690Z,2.27
2022-08-05T17:01:59.344Z,1.70
2022-08-05T17:04:48.583Z,1.93
2022-08-05T17:07:43.664Z,3.43
2022-08-05T17:10:41.910Z,1.30
2022-08-05T17:13:37.846Z,2.40
2022-08-05T17:16:32.872Z,1.90
2022-08-05T17:19:21.286Z,3.27
2022-08-05T17:22:08.462Z,2.30
2022-08-05T17:24:58.667Z,2.83
2022-08-05T17:27:47.367Z,0.77
2022-08-05T17:30:34.446Z,4.00
2022-08-05T17:33:38.831Z,3.23
2022-08-05T17:36:33.989Z,2.60
2022-08-05T17:39:23.806Z,1.93
2022-08-05T17:42:28.386Z,2.90
2022-08-05T17:45:21.195Z,2.03
2022-08-05T17:48:08.743Z,1.80
2022-08-05T17:50:55.749Z,1.60
2022-08-05T17:53:42.882Z,2.33
2022-08-05T17:56:38.114Z,2.50
2022-08-05T17:59:25.473Z,1.30
2022-08-05T18:02:13.017Z,6.63
2022-08-05T18:05:07.536Z,1.97
2022-08-05T18:07:56.738Z,3.37
2022-08-05T18:10:44.129Z,1.80
2022-08-05T18:13:36.864Z,1.60
2022-08-05T18:16:33.227Z,1.60
2022-08-05T18:19:23.084Z,2.17
2022-08-05T18:22:17.966Z,1.73
2022-08-05T18:25:06.483Z,1.57
2022-08-05T18:27:53.888Z,3.50
2022-08-05T18:30:41.006Z,2.40
2022-08-05T18:33:28.758Z,1.43
2022-08-05T18:36:38.144Z,1.73
2022-08-05T18:40:30.933Z,2.97
2022-08-05T18:42:41.636Z,1.83
2022-08-05T18:45:41.202Z,2.80
2022-08-05T18:48:32.987Z,3.30
2022-08-05T18:52:03.890Z,3.60
2022-08-05T18:54:49.834Z,1.77
2022-08-05T18:57:43.135Z,3.10
2022-08-05T19:00:37.595Z,1.60
2022-08-05T19:03:53.421Z,4.47
2022-08-05T19:06:44.681Z,3.00
2022-08-05T19:09:39.122Z,1.43
2022-08-05T19:12:29.559Z,1.33
2022-08-05T19:15:59.192Z,2.00
2022-08-05T19:18:26.990Z,2.90
2022-08-05T19:21:15.749Z,1.47
2022-08-05T19:24:09.032Z,3.00
2022-08-05T19:27:00.183Z,1.97
2022-08-05T19:29:52.025Z,2.00
2022-08-05T19:32:39.175Z,2.47
2022-08-05T19:35:26.173Z,2.87
2022-08-05T19:38:36.433Z,2.47
2022-08-05T19:42:05.591Z,3.13
2022-08-05T19:44:31.078Z,1.50
2022-08-05T19:47:18.178Z,6.57
2022-08-05T19:50:10.452Z,2.70
2022-08-05T19:53:10.649Z,3.27
2022-08-05T19:56:14.842Z,1.30
2022-08-05T19:59:53.803Z,2.80
2022-08-05T20:02:17.571Z,1.50
2022-08-05T20:05:05.457Z,2.10
2022-08-05T20:07:59.023Z,2.87
2022-08-05T20:10:49.459Z,1.50
2022-08-05T20:13:58.761Z,3.63
2022-08-05T20:16:44.744Z,4.93
2022-08-05T20:19:36.293Z,3.17
2022-08-05T20:22:32.082Z,1.67
2022-08-05T20:25:24.691Z,1.73
2022-08-05T20:28:26.858Z,4.93
2022-08-05T20:31:16.426Z,1.40
2022-08-05T20:34:04.005Z,2.30
2022-08-05T20:36:51.282Z,2.93
2022-08-05T20:39:38.503Z,1.50
2022-08-05T20:42:28.301Z,4.53
2022-08-05T20:45:16.613Z,1.90
2022-08-05T20:48:08.567Z,2.83
2022-08-05T20:50:56.262Z,2.97
2022-08-05T20:53:43.518Z,2.73
2022-08-05T20:56:43.517Z,2.37
2022-08-05T20:59:46.227Z,2.50
2022-08-05T21:02:43.688Z,2.10
2022-08-05T21:05:53.770Z,1.57
2022-08-05T21:08:44.026Z,4.40
2022-08-05T21:12:09.932Z,3.17
2022-08-05T21:14:38.869Z,2.00
2022-08-05T21:17:27.080Z,2.40
2022-08-05T21:20:15.542Z,2.63
2022-08-05T21:23:20.620Z,2.00
2022-08-05T21:26:14.325Z,2.30
2022-08-05T21:29:03.770Z,2.60
2022-08-05T21:31:51.173Z,2.53
2022-08-05T21:34:38.639Z,2.97
2022-08-05T21:37:26.840Z,2.27
2022-08-05T21:40:14.195Z,3.83
2022-08-05T21:43:05.520Z,2.50
2022-08-05T21:45:56.607Z,4.43
2022-08-05T21:48:45.047Z,2.70
2022-08-05T21:52:27.402Z,4.60
2022-08-05T21:54:41.383Z,1.67
2022-08-05T21:57:31.153Z,1.93
2022-08-05T22:00:18.977Z,2.43
2022-08-05T22:03:05.970Z,2.93
2022-08-05T22:05:53.014Z,3.50
2022-08-05T22:08:42.778Z,1.97
2022-08-05T22:11:34.486Z,2.40
2022-08-05T22:14:35.106Z,2.40
2022-08-05T22:17:25.098Z,3.13
2022-08-05T22:20:14.834Z,3.53
2022-08-05T22:23:22.359Z,2.53
2022-08-05T22:26:28.260Z,4.53
2022-08-05T22:29:17.497Z,2.57
2022-08-05T22:32:06.342Z,2.37
2022-08-05T22:34:57.153Z,2.80
2022-08-05T22:37:59.152Z,4.93
2022-08-05T22:40:49.468Z,4.27
2022-08-05T22:43:38.158Z,2.50
2022-08-05T22:46:25.855Z,3.13
2022-08-05T22:50:18.204Z,1.87
2022-08-05T22:52:30.418Z,4.23
2022-08-05T22:55:22.908Z,3.90
2022-08-05T22:58:11.618Z,2.47
2022-08-05T23:01:01.494Z,3.10
2022-08-05T23:03:59.032Z,1.57
2022-08-05T23:06:47.752Z,2.10
2022-08-05T23:09:58.310Z,2.33
2022-08-05T23:12:43.742Z,3.27
2022-08-05T23:15:34.983Z,3.70
2022-08-05T23:18:23.304Z,2.20
2022-08-05T23:21:10.432Z,2.90
2022-08-05T23:23:57.513Z,2.87
2022-08-05T23:26:45.163Z,2.57
2022-08-05T23:29:34.948Z,3.07
2022-08-05T23:32:23.773Z,2.23
2022-08-05T23:35:11.152Z,2.40
2022-08-05T23:37:58.177Z,3.53
2022-08-05T23:40:49.412Z,2.33
2022-08-05T23:44:04.626Z,3.97
2022-08-05T23:46:44.277Z,2.33
2022-08-05T23:49:33.814Z,4.57
2022-08-05T23:52:36.016Z,2.30
2022-08-05T23:55:31.124Z,3.07
2022-08-05T23:58:31.925Z,2.40
